createdAt,value
2018-08-13T00:01:46.094Z,19.90
2018-08-13T00:04:16.059Z,19.90
2018-08-13T00:06:46.414Z,19.70
2018-08-13T00:09:20.376Z,19.80
2018-08-13T00:11:50.600Z,19.80
2018-08-13T00:14:20.484Z,19.70
2018-08-13T00:16:50.425Z,19.70
2018-08-13T00:19:20.405Z,19.70
2018-08-13T00:21:50.423Z,19.70
2018-08-13T00:24:20.372Z,19.70
2018-08-13T00:26:50.834Z,18.60
2018-08-13T00:29:20.912Z,19.50
2018-08-13T00:31:51.137Z,19.50
2018-08-13T00:34:21.243Z,19.40
2018-08-13T00:36:51.285Z,19.40
2018-08-13T00:39:21.356Z,19.50
2018-08-13T00:41:51.645Z,19.50
2018-08-13T00:44:21.549Z,19.50
2018-08-13T00:46:51.544Z,19.60
2018-08-13T00:49:21.519Z,20.00
2018-08-13T00:51:51.514Z,19.50
2018-08-13T00:54:21.428Z,19.50
2018-08-13T00:56:51.522Z,19.40
2018-08-13T00:59:21.418Z,19.40
2018-08-13T01:01:51.961Z,19.30
2018-08-13T01:04:21.841Z,19.10
2018-08-13T01:06:51.861Z,19.10
2018-08-13T01:09:21.835Z,19.10
2018-08-13T01:11:51.757Z,19.00
2018-08-13T01:14:21.748Z,19.10
2018-08-13T01:16:51.900Z,18.80
2018-08-13T01:19:21.970Z,18.40
2018-08-13T01:21:52.414Z,18.90
2018-08-13T01:24:22.338Z,19.00
2018-08-13T01:26:52.294Z,19.10
2018-08-13T01:29:22.269Z,19.10
2018-08-13T01:31:52.298Z,19.10
2018-08-13T01:34:22.184Z,19.20
2018-08-13T01:36:52.080Z,19.30
2018-08-13T01:39:21.966Z,19.20
2018-08-13T01:41:52.368Z,19.10
2018-08-13T01:44:22.259Z,19.00
2018-08-13T01:46:52.098Z,18.80
2018-08-13T01:49:21.950Z,18.90
2018-08-13T01:51:51.962Z,19.30
2018-08-13T01:54:21.864Z,19.40
2018-08-13T01:56:52.327Z,20.50
2018-08-13T01:59:22.215Z,19.50
2018-08-13T02:01:52.460Z,19.50
2018-08-13T02:04:22.398Z,19.60
2018-08-13T02:06:52.713Z,19.50
2018-08-13T02:09:22.670Z,19.60
2018-08-13T02:11:52.985Z,19.60
2018-08-13T02:14:22.974Z,19.70
2018-08-13T02:16:53.047Z,19.70
2018-08-13T02:19:23.105Z,19.50
2018-08-13T02:21:53.059Z,19.40
2018-08-13T02:24:23.133Z,19.40
2018-08-13T02:26:53.902Z,19.30
2018-08-13T02:29:24.207Z,19.20
2018-08-13T02:31:54.431Z,19.20
2018-08-13T02:34:24.340Z,19.20
2018-08-13T02:36:54.381Z,19.30
2018-08-13T02:39:24.463Z,19.40
2018-08-13T02:41:54.787Z,19.40
2018-08-13T02:44:24.738Z,19.50
2018-08-13T02:46:54.942Z,19.50
2018-08-13T02:49:24.799Z,19.40
2018-08-13T02:51:54.693Z,19.40
2018-08-13T02:54:24.669Z,19.40
2018-08-13T02:56:54.612Z,19.50
2018-08-13T02:59:24.587Z,19.50
2018-08-13T03:01:54.883Z,19.60
2018-08-13T03:04:24.886Z,19.60
2018-08-13T03:06:54.918Z,19.80
2018-08-13T03:09:25.209Z,19.90
2018-08-13T03:11:55.258Z,19.20
2018-08-13T03:14:25.160Z,20.60
2018-08-13T03:16:55.752Z,20.80
2018-08-13T03:19:25.681Z,20.90
2018-08-13T03:21:55.666Z,21.10
2018-08-13T03:24:26.006Z,21.20
2018-08-13T03:26:56.102Z,21.40
2018-08-13T03:29:26.048Z,21.40
2018-08-13T03:31:56.374Z,21.30
2018-08-13T03:34:26.268Z,21.00
2018-08-13T03:36:56.104Z,20.90
2018-08-13T03:39:26.343Z,20.80
2018-08-13T03:41:56.242Z,21.00
2018-08-13T03:44:26.125Z,21.30
2018-08-13T03:46:56.462Z,21.60
2018-08-13T03:49:26.327Z,21.70
2018-08-13T03:51:56.490Z,21.70
2018-08-13T03:54:26.645Z,21.60
2018-08-13T03:56:56.686Z,21.80
2018-08-13T03:59:26.562Z,21.70
2018-08-13T04:01:57.090Z,21.60
2018-08-13T04:04:27.087Z,21.60
2018-08-13T04:06:57.246Z,21.60
2018-08-13T04:09:27.531Z,21.20
2018-08-13T04:11:57.554Z,20.70
2018-08-13T04:14:27.502Z,20.80
2018-08-13T04:17:02.779Z,21.00
2018-08-13T04:19:34.052Z,21.00
2018-08-13T04:22:04.211Z,21.00
2018-08-13T04:24:34.739Z,20.90
2018-08-13T04:27:04.818Z,20.50
2018-08-13T04:29:34.654Z,20.30
2018-08-13T04:32:04.607Z,20.50
2018-08-13T04:34:34.596Z,20.70
2018-08-13T04:37:05.052Z,21.80
2018-08-13T04:39:35.006Z,20.90
2018-08-13T04:42:05.194Z,20.90
2018-08-13T04:44:35.573Z,19.80
2018-08-13T04:47:05.797Z,20.70
2018-08-13T04:49:35.839Z,20.70
2018-08-13T04:52:06.290Z,20.90
2018-08-13T04:54:36.190Z,20.80
2018-08-13T04:57:06.319Z,20.50
2018-08-13T04:59:36.868Z,20.70
2018-08-13T05:02:07.817Z,20.80
2018-08-13T05:04:39.039Z,20.90
2018-08-13T05:07:09.541Z,20.90
2018-08-13T05:09:39.623Z,20.90
2018-08-13T05:12:09.804Z,20.80
2018-08-13T05:14:40.105Z,20.70
2018-08-13T05:17:10.359Z,20.60
2018-08-13T05:19:40.263Z,20.70
2018-08-13T05:22:10.706Z,20.50
2018-08-13T05:24:40.770Z,20.60
2018-08-13T05:27:12.565Z,20.60
2018-08-13T05:29:43.135Z,20.30
2018-08-13T05:32:13.654Z,20.40
2018-08-13T05:34:43.840Z,19.20
2018-08-13T05:37:17.441Z,20.50
2018-08-13T05:39:47.563Z,20.10
2018-08-13T05:42:17.926Z,20.10
2018-08-13T05:44:47.948Z,20.20
2018-08-13T05:47:18.199Z,20.20
2018-08-13T05:49:49.406Z,20.30
2018-08-13T05:52:19.519Z,20.00
2018-08-13T05:54:49.599Z,20.20
2018-08-13T05:57:27.071Z,20.40
2018-08-13T06:00:23.418Z,20.40
2018-08-13T06:02:54.406Z,20.50
2018-08-13T06:05:24.487Z,20.50
2018-08-13T06:07:54.401Z,21.60
2018-08-13T06:10:26.798Z,20.80
2018-08-13T06:12:57.256Z,21.00
2018-08-13T06:15:30.948Z,21.10
2018-08-13T06:18:01.368Z,20.60
2018-08-13T06:20:31.416Z,20.80
2018-08-13T06:23:02.057Z,21.00
2018-08-13T06:25:32.427Z,21.10
2018-08-13T06:28:02.724Z,21.00
2018-08-13T06:30:33.223Z,21.10
2018-08-13T06:33:04.478Z,21.20
2018-08-13T06:35:34.526Z,21.10
2018-08-13T06:38:04.930Z,20.90
2018-08-13T06:40:35.130Z,20.80
2018-08-13T06:43:05.183Z,20.70
2018-08-13T06:45:35.309Z,20.70
2018-08-13T06:48:05.981Z,20.80
2018-08-13T06:50:36.430Z,20.70
2018-08-13T06:53:06.957Z,20.70
2018-08-13T06:55:37.471Z,20.80
2018-08-13T06:58:08.475Z,20.90
2018-08-13T07:00:38.639Z,20.90
2018-08-13T07:03:09.145Z,21.00
2018-08-13T07:05:39.497Z,21.00
2018-08-13T07:08:09.741Z,21.00
2018-08-13T07:10:40.239Z,20.70
2018-08-13T07:13:11.238Z,20.70
2018-08-13T07:15:45.964Z,20.80
2018-08-13T07:18:17.411Z,20.90
2018-08-13T07:20:47.570Z,20.90
2018-08-13T07:23:17.718Z,20.90
2018-08-13T07:25:48.663Z,21.00
2018-08-13T07:29:52.546Z,21.10
2018-08-13T07:32:24.674Z,21.20
2018-08-13T07:34:54.737Z,21.80
2018-08-13T07:37:25.314Z,21.00
2018-08-13T07:39:55.453Z,21.00
2018-08-13T07:42:25.651Z,21.10
2018-08-13T07:44:56.034Z,21.20
2018-08-13T07:47:27.810Z,21.40
2018-08-13T07:49:58.071Z,21.30
2018-08-13T07:52:28.056Z,20.70
2018-08-13T07:54:58.439Z,21.00
2018-08-13T07:57:29.068Z,21.10
2018-08-13T07:59:59.643Z,21.20
2018-08-13T08:02:31.169Z,21.40
2018-08-13T08:05:01.529Z,21.70
2018-08-13T08:07:31.649Z,21.50
2018-08-13T08:10:02.290Z,21.70
2018-08-13T08:12:32.803Z,21.80
2018-08-13T08:15:03.603Z,21.80
2018-08-13T08:17:33.871Z,21.70
2018-08-13T08:20:04.606Z,21.50
2018-08-13T08:22:35.232Z,21.20
2018-08-13T08:25:07.237Z,21.10
2018-08-13T08:27:37.805Z,20.90
2018-08-13T08:30:10.099Z,20.90
2018-08-13T08:32:40.273Z,20.90
2018-08-13T08:35:12.677Z,21.20
2018-08-13T08:37:43.284Z,21.30
2018-08-13T08:40:16.785Z,21.50
2018-08-13T08:42:48.177Z,21.50
2018-08-13T08:45:22.466Z,21.70
2018-08-13T08:47:53.957Z,21.90
2018-08-13T08:50:24.865Z,22.10
2018-08-13T08:52:56.727Z,22.30
2018-08-13T08:55:28.833Z,22.30
2018-08-13T08:58:01.367Z,21.40
2018-08-13T09:00:31.784Z,22.80
2018-08-13T09:03:03.143Z,22.90
2018-08-13T09:05:34.044Z,22.80
2018-08-13T09:08:04.885Z,22.70
2018-08-13T09:10:36.999Z,22.70
2018-08-13T09:13:08.867Z,22.50
2018-08-13T09:15:39.415Z,22.60
2018-08-13T09:18:21.921Z,22.60
2018-08-13T09:21:04.053Z,22.80
2018-08-13T09:23:45.147Z,22.70
2018-08-13T09:26:26.412Z,22.60
2018-08-13T09:29:07.076Z,22.70
2018-08-13T09:32:19.245Z,22.90
2018-08-13T09:34:58.128Z,23.00
2018-08-13T09:37:29.252Z,23.10
2018-08-13T09:40:00.601Z,23.00
2018-08-13T09:42:32.756Z,23.00
2018-08-13T09:45:05.486Z,22.80
2018-08-13T09:47:36.380Z,22.70
2018-08-13T09:50:10.493Z,21.50
2018-08-13T09:52:42.881Z,22.50
2018-08-13T09:55:16.446Z,22.80
2018-08-13T09:57:50.306Z,22.90
2018-08-13T10:00:27.586Z,23.00
2018-08-13T10:02:57.985Z,23.00
2018-08-13T10:05:30.962Z,23.30
2018-08-13T10:08:02.201Z,23.40
2018-08-13T10:10:33.583Z,23.20
2018-08-13T10:13:04.873Z,23.10
2018-08-13T10:15:37.809Z,23.40
2018-08-13T10:18:09.447Z,23.60
2018-08-13T10:20:40.131Z,24.00
2018-08-13T10:23:10.739Z,24.30
2018-08-13T10:25:40.914Z,23.90
2018-08-13T10:28:11.265Z,23.80
2018-08-13T10:30:41.995Z,23.30
2018-08-13T10:33:12.556Z,23.10
2018-08-13T10:35:43.059Z,23.00
2018-08-13T10:38:14.306Z,23.00
2018-08-13T10:40:44.438Z,23.30
2018-08-13T10:43:15.413Z,23.40
2018-08-13T10:45:45.692Z,23.50
2018-08-13T10:48:15.876Z,23.40
2018-08-13T10:50:47.011Z,23.10
2018-08-13T10:53:17.344Z,22.90
2018-08-13T10:55:50.361Z,23.20
2018-08-13T10:58:23.924Z,23.80
2018-08-13T11:00:54.774Z,24.40
2018-08-13T11:03:24.929Z,24.30
2018-08-13T11:05:59.861Z,24.10
2018-08-13T11:08:32.835Z,24.30
2018-08-13T11:11:03.600Z,24.30
2018-08-13T11:13:34.174Z,23.90
2018-08-13T11:16:06.310Z,24.10
2018-08-13T11:18:38.521Z,24.00
2018-08-13T11:21:09.205Z,24.20
2018-08-13T11:23:39.809Z,24.30
2018-08-13T11:26:10.278Z,24.00
2018-08-13T11:28:41.427Z,24.10
2018-08-13T11:31:12.237Z,24.10
2018-08-13T11:33:43.164Z,24.00
2018-08-13T11:36:13.629Z,23.90
2018-08-13T11:38:47.845Z,24.10
2018-08-13T11:41:18.756Z,24.40
2018-08-13T11:43:50.385Z,24.70
2018-08-13T11:46:20.738Z,24.50
2018-08-13T11:48:50.948Z,24.40
2018-08-13T11:51:21.796Z,24.10
2018-08-13T11:53:55.474Z,23.80
2018-08-13T11:56:29.537Z,24.00
2018-08-13T11:59:00.654Z,24.30
2018-08-13T12:01:31.716Z,24.10
2018-08-13T12:04:02.741Z,24.20
2018-08-13T12:06:33.079Z,24.50
2018-08-13T12:09:04.219Z,24.50
2018-08-13T12:11:34.739Z,24.50
2018-08-13T12:14:05.520Z,24.30
2018-08-13T12:16:41.252Z,24.50
2018-08-13T12:19:11.919Z,24.40
2018-08-13T12:21:42.186Z,24.30
2018-08-13T12:24:12.418Z,24.00
2018-08-13T12:26:42.703Z,23.90
2018-08-13T12:29:13.877Z,24.10
2018-08-13T12:31:45.586Z,24.30
2018-08-13T12:34:16.230Z,24.20
2018-08-13T12:36:46.591Z,24.50
2018-08-13T12:39:17.159Z,24.00
2018-08-13T12:41:47.247Z,23.90
2018-08-13T12:44:17.638Z,23.70
2018-08-13T12:46:48.286Z,23.40
2018-08-13T12:49:21.972Z,23.60
2018-08-13T12:52:04.847Z,23.20
2018-08-13T12:54:38.193Z,23.30
2018-08-13T12:57:09.245Z,23.00
2018-08-13T12:59:40.354Z,23.00
2018-08-13T13:02:11.428Z,22.80
2018-08-13T13:04:41.803Z,23.00
2018-08-13T13:07:12.630Z,23.30
2018-08-13T13:09:43.350Z,23.50
2018-08-13T13:12:15.117Z,23.80
2018-08-13T13:14:45.629Z,24.20
2018-08-13T13:17:15.870Z,24.50
2018-08-13T13:19:45.852Z,24.70
2018-08-13T13:22:16.272Z,24.70
2018-08-13T13:24:46.767Z,24.60
2018-08-13T13:27:17.688Z,25.00
2018-08-13T13:29:48.146Z,25.10
2018-08-13T13:32:18.748Z,25.00
2018-08-13T13:34:50.622Z,25.00
2018-08-13T13:37:21.603Z,24.90
2018-08-13T13:39:52.500Z,24.70
2018-08-13T13:42:22.706Z,24.80
2018-08-13T13:44:53.014Z,24.90
2018-08-13T13:47:23.564Z,25.00
2018-08-13T13:49:54.163Z,25.20
2018-08-13T13:52:24.521Z,25.10
2018-08-13T13:54:55.097Z,24.80
2018-08-13T13:57:25.660Z,24.50
2018-08-13T13:59:57.548Z,24.90
2018-08-13T14:02:27.773Z,25.00
2018-08-13T14:04:58.349Z,24.90
2018-08-13T14:07:30.440Z,25.30
2018-08-13T14:10:01.042Z,24.80
2018-08-13T14:12:32.045Z,24.50
2018-08-13T14:15:04.166Z,24.60
2018-08-13T14:17:34.410Z,24.70
2018-08-13T14:20:09.079Z,25.00
2018-08-13T14:22:39.743Z,25.00
2018-08-13T14:25:12.201Z,24.90
2018-08-13T14:27:42.835Z,25.20
2018-08-13T14:30:26.395Z,25.60
2018-08-13T14:32:57.136Z,25.70
2018-08-13T14:35:28.639Z,25.60
2018-08-13T14:37:58.931Z,25.50
2018-08-13T14:40:29.721Z,25.70
2018-08-13T14:43:00.003Z,25.40
2018-08-13T14:45:30.423Z,25.60
2018-08-13T14:48:01.916Z,25.70
2018-08-13T14:50:32.850Z,25.20
2018-08-13T14:53:03.200Z,25.00
2018-08-13T14:55:33.389Z,24.60
2018-08-13T14:58:05.477Z,24.70
2018-08-13T15:00:38.099Z,24.60
2018-08-13T15:03:12.186Z,24.70
2018-08-13T15:05:42.851Z,24.50
2018-08-13T15:08:13.550Z,24.50
2018-08-13T15:10:44.163Z,22.60
2018-08-13T15:13:15.099Z,23.90
2018-08-13T15:15:46.144Z,23.30
2018-08-13T15:18:16.356Z,24.70
2018-08-13T15:20:48.006Z,24.50
2018-08-13T15:23:18.344Z,24.80
2018-08-13T15:25:48.782Z,24.60
2018-08-13T15:28:19.014Z,24.30
2018-08-13T15:30:49.547Z,24.30
2018-08-13T15:33:20.106Z,24.40
2018-08-13T15:35:52.573Z,24.20
2018-08-13T15:38:23.253Z,24.20
2018-08-13T15:40:54.336Z,24.20
2018-08-13T15:43:24.588Z,24.30
2018-08-13T15:45:55.243Z,24.40
2018-08-13T15:48:25.494Z,24.70
2018-08-13T15:50:55.636Z,24.70
2018-08-13T15:53:26.101Z,24.40
2018-08-13T15:55:56.333Z,24.30
2018-08-13T15:58:26.375Z,24.30
2018-08-13T16:00:57.212Z,24.50
2018-08-13T16:03:27.667Z,24.50
2018-08-13T16:05:58.012Z,24.60
2018-08-13T16:08:28.559Z,24.60
2018-08-13T16:10:58.644Z,24.40
2018-08-13T16:13:29.184Z,24.10
2018-08-13T16:15:59.776Z,24.10
2018-08-13T16:18:29.966Z,23.60
2018-08-13T16:21:00.520Z,24.00
2018-08-13T16:23:31.487Z,23.80
2018-08-13T16:26:01.892Z,23.60
2018-08-13T16:28:32.775Z,23.30
2018-08-13T16:31:05.408Z,23.10
2018-08-13T16:33:36.006Z,23.10
2018-08-13T16:36:07.323Z,22.50
2018-08-13T16:38:37.574Z,23.40
2018-08-13T16:41:08.147Z,23.80
2018-08-13T16:43:38.392Z,23.70
2018-08-13T16:46:09.001Z,23.90
2018-08-13T16:48:39.580Z,23.90
2018-08-13T16:51:09.842Z,23.80
2018-08-13T16:53:40.968Z,23.70
2018-08-13T16:56:11.338Z,23.60
2018-08-13T16:58:41.541Z,23.60
2018-08-13T17:01:13.490Z,23.50
2018-08-13T17:03:43.707Z,23.50
2018-08-13T17:06:13.968Z,23.70
2018-08-13T17:08:45.392Z,23.90
2018-08-13T17:11:17.715Z,24.10
2018-08-13T17:13:47.832Z,24.40
2018-08-13T17:16:18.096Z,24.50
2018-08-13T17:18:49.366Z,24.70
2018-08-13T17:21:20.292Z,24.70
2018-08-13T17:23:50.539Z,24.70
2018-08-13T17:26:20.834Z,24.30
2018-08-13T17:28:51.305Z,24.10
2018-08-13T17:31:21.662Z,23.60
2018-08-13T17:33:51.759Z,23.50
2018-08-13T17:36:22.156Z,23.60
2018-08-13T17:38:52.232Z,23.60
2018-08-13T17:41:23.741Z,23.60
2018-08-13T17:43:54.194Z,23.50
2018-08-13T17:46:24.395Z,23.10
2018-08-13T17:48:54.829Z,23.20
2018-08-13T17:51:25.058Z,23.30
2018-08-13T17:53:55.270Z,23.30
2018-08-13T17:56:25.731Z,23.40
2018-08-13T17:58:55.820Z,23.40
2018-08-13T18:01:26.493Z,23.30
2018-08-13T18:03:56.780Z,23.30
2018-08-13T18:06:27.284Z,23.20
2018-08-13T18:08:57.780Z,23.20
2018-08-13T18:11:27.875Z,23.00
2018-08-13T18:13:58.119Z,22.70
2018-08-13T18:16:28.491Z,22.70
2018-08-13T18:18:58.656Z,22.80
2018-08-13T18:21:29.239Z,22.80
2018-08-13T18:23:59.434Z,22.70
2018-08-13T18:26:29.827Z,22.50
2018-08-13T18:29:00.342Z,22.40
2018-08-13T18:31:30.880Z,22.50
2018-08-13T18:34:01.033Z,22.50
2018-08-13T18:36:31.289Z,22.60
2018-08-13T18:39:02.190Z,22.00
2018-08-13T18:41:32.767Z,20.50
2018-08-13T18:44:03.221Z,21.80
2018-08-13T18:46:36.311Z,21.90
2018-08-13T18:49:06.672Z,22.00
2018-08-13T18:51:36.846Z,21.90
2018-08-13T18:54:07.551Z,22.10
2018-08-13T18:56:37.534Z,22.10
2018-08-13T18:59:07.711Z,22.20
2018-08-13T19:01:38.197Z,22.10
2018-08-13T19:04:09.262Z,22.10
2018-08-13T19:06:39.865Z,22.00
2018-08-13T19:09:10.532Z,22.00
2018-08-13T19:11:40.792Z,21.90
2018-08-13T19:14:11.199Z,21.90
2018-08-13T19:16:41.455Z,21.80
2018-08-13T19:19:11.628Z,21.80
2018-08-13T19:21:42.052Z,21.70
2018-08-13T19:24:12.350Z,21.70
2018-08-13T19:26:42.478Z,22.40
2018-08-13T19:29:12.725Z,21.70
2018-08-13T19:31:42.837Z,21.40
2018-08-13T19:34:13.450Z,21.40
2018-08-13T19:36:43.513Z,21.30
2018-08-13T19:39:14.786Z,21.30
2018-08-13T19:41:45.408Z,21.30
2018-08-13T19:44:15.498Z,21.40
2018-08-13T19:46:45.564Z,21.30
2018-08-13T19:49:16.514Z,21.20
2018-08-13T19:51:47.141Z,21.10
2018-08-13T19:54:17.569Z,20.90
2018-08-13T19:56:47.716Z,20.70
2018-08-13T19:59:18.579Z,20.90
2018-08-13T20:01:49.094Z,20.90
2018-08-13T20:04:19.603Z,21.00
2018-08-13T20:06:49.981Z,20.90
2018-08-13T20:09:20.318Z,20.90
2018-08-13T20:11:54.037Z,20.90
2018-08-13T20:14:26.267Z,20.90
2018-08-13T20:16:56.913Z,20.90
2018-08-13T20:19:27.122Z,20.80
2018-08-13T20:21:58.253Z,20.80
2018-08-13T20:24:28.685Z,20.80
2018-08-13T20:26:59.559Z,20.80
2018-08-13T20:29:30.896Z,20.70
2018-08-13T20:32:01.961Z,20.50
2018-08-13T20:34:32.457Z,20.60
2018-08-13T20:37:03.280Z,20.60
2018-08-13T20:39:33.583Z,20.70
2018-08-13T20:42:04.456Z,20.70
2018-08-13T20:44:34.641Z,20.70
2018-08-13T20:47:06.579Z,20.70
2018-08-13T20:49:36.756Z,20.50
2018-08-13T20:52:07.210Z,20.50
2018-08-13T20:54:37.656Z,20.30
2018-08-13T20:57:07.880Z,20.50
2018-08-13T20:59:38.018Z,20.40
2018-08-13T21:02:08.360Z,20.90
2018-08-13T21:04:38.585Z,20.10
2018-08-13T21:07:09.034Z,19.90
2018-08-13T21:09:39.094Z,20.00
2018-08-13T21:12:09.355Z,20.20
2018-08-13T21:14:39.652Z,20.30
2018-08-13T21:17:09.758Z,20.40
2018-08-13T21:19:39.782Z,20.50
2018-08-13T21:22:10.281Z,20.20
2018-08-13T21:24:41.374Z,20.20
2018-08-13T21:27:11.451Z,20.20
2018-08-13T21:29:41.568Z,20.10
2018-08-13T21:32:11.720Z,20.00
2018-08-13T21:34:42.200Z,18.80
2018-08-13T21:37:12.596Z,19.90
2018-08-13T21:39:42.546Z,20.00
2018-08-13T21:42:12.931Z,20.20
2018-08-13T21:44:43.263Z,20.20
2018-08-13T21:47:13.477Z,20.10
2018-08-13T21:49:43.479Z,19.90
2018-08-13T21:52:13.608Z,19.90
2018-08-13T21:54:43.945Z,20.00
2018-08-13T21:57:13.814Z,19.90
2018-08-13T21:59:43.819Z,21.40
2018-08-13T22:02:15.544Z,19.80
2018-08-13T22:04:45.783Z,19.80
2018-08-13T22:07:16.037Z,19.90
2018-08-13T22:09:45.975Z,19.80
2018-08-13T22:12:18.151Z,19.50
2018-08-13T22:14:49.050Z,19.30
2018-08-13T22:17:19.174Z,20.10
2018-08-13T22:19:49.199Z,19.40
2018-08-13T22:22:19.517Z,19.70
2018-08-13T22:25:04.193Z,19.70
2018-08-13T22:27:34.322Z,19.70
2018-08-13T22:30:05.676Z,19.70
2018-08-13T22:32:36.827Z,19.90
2018-08-13T22:35:09.097Z,19.80
2018-08-13T22:37:42.300Z,19.80
2018-08-13T22:40:14.609Z,19.90
2018-08-13T22:42:45.299Z,20.00
2018-08-13T22:45:20.731Z,20.10
2018-08-13T22:47:51.117Z,20.20
2018-08-13T22:50:21.145Z,20.30
2018-08-13T22:52:51.616Z,20.30
2018-08-13T22:55:21.809Z,20.30
2018-08-13T22:57:51.994Z,20.30
2018-08-13T23:00:22.284Z,20.20
2018-08-13T23:02:52.682Z,20.30
2018-08-13T23:05:25.511Z,20.20
2018-08-13T23:07:55.971Z,20.40
2018-08-13T23:10:26.326Z,21.50
2018-08-13T23:12:57.620Z,20.50
2018-08-13T23:15:28.063Z,20.50
2018-08-13T23:17:58.363Z,20.60
2018-08-13T23:20:29.715Z,20.60
2018-08-13T23:23:01.458Z,20.60
2018-08-13T23:25:32.366Z,20.60
2018-08-13T23:28:03.805Z,20.50
2018-08-13T23:30:34.310Z,19.40
2018-08-13T23:33:04.633Z,20.30
2018-08-13T23:35:34.749Z,20.40
2018-08-13T23:38:05.262Z,20.40
2018-08-13T23:40:35.318Z,20.40
2018-08-13T23:43:06.094Z,20.40
2018-08-13T23:45:36.031Z,20.30
2018-08-13T23:48:06.110Z,20.30
2018-08-13T23:50:36.367Z,20.30
2018-08-13T23:53:07.526Z,20.20
2018-08-13T23:55:39.122Z,20.20
2018-08-13T23:58:12.862Z,20.40
